createdAt,value
2023-03-21T00:04:23.703Z,43.78
2023-03-21T00:06:51.330Z,40.83
2023-03-21T00:09:18.664Z,45.33
2023-03-21T00:11:45.771Z,47.80
2023-03-21T00:14:20.220Z,45.63
2023-03-21T00:16:51.765Z,48.45
2023-03-21T00:19:24.970Z,49.17
2023-03-21T00:22:06.458Z,45.53
2023-03-21T00:24:36.062Z,47.05
2023-03-21T00:27:26.917Z,44.13
2023-03-21T00:29:50.913Z,47.95
2023-03-21T00:32:21.902Z,48.80
2023-03-21T00:35:38.266Z,49.47
2023-03-21T00:37:37.196Z,50.78
2023-03-21T00:40:16.417Z,50.50
2023-03-21T00:42:50.654Z,54.35
2023-03-21T00:45:19.416Z,53.05
2023-03-21T00:47:46.540Z,49.67
2023-03-21T00:50:13.881Z,48.53
2023-03-21T00:52:41.405Z,52.65
2023-03-21T00:55:14.686Z,55.55
2023-03-21T00:57:45.357Z,54.22
2023-03-21T01:00:15.349Z,49.95
2023-03-21T01:03:14.244Z,53.47
2023-03-21T01:06:04.574Z,59.42
2023-03-21T01:08:52.140Z,54.30
2023-03-21T01:11:24.002Z,49.55
2023-03-21T01:13:56.281Z,51.58
2023-03-21T01:16:29.314Z,48.88
2023-03-21T01:18:57.282Z,50.75
2023-03-21T01:21:24.604Z,45.17
2023-03-21T01:23:51.769Z,53.55
2023-03-21T01:26:19.621Z,43.67
2023-03-21T01:28:46.770Z,44.35
2023-03-21T01:31:15.842Z,46.90
2023-03-21T01:33:43.813Z,54.00
2023-03-21T01:36:31.421Z,45.97
2023-03-21T01:39:04.421Z,56.00
2023-03-21T01:41:45.150Z,55.55
2023-03-21T01:44:23.777Z,51.38
2023-03-21T01:47:09.372Z,47.03
2023-03-21T01:49:51.031Z,47.20
2023-03-21T01:52:39.188Z,48.15
2023-03-21T01:55:34.053Z,48.67
2023-03-21T01:58:12.818Z,48.38
2023-03-21T02:01:04.877Z,48.30
2023-03-21T02:03:52.084Z,39.65
2023-03-21T02:06:53.448Z,41.45
2023-03-21T02:09:35.253Z,43.35
2023-03-21T02:12:04.229Z,41.67
2023-03-21T02:14:36.183Z,42.50
2023-03-21T02:17:27.352Z,39.28
2023-03-21T02:20:51.139Z,42.50
2023-03-21T02:23:36.957Z,38.40
2023-03-21T02:26:40.893Z,38.33
2023-03-21T02:29:35.965Z,39.42
2023-03-21T02:32:22.637Z,41.50
2023-03-21T02:35:14.171Z,35.67
2023-03-21T02:38:00.834Z,40.95
2023-03-21T02:40:40.120Z,39.60
2023-03-21T02:43:23.770Z,45.08
2023-03-21T02:46:07.378Z,47.47
2023-03-21T02:48:50.362Z,49.35
2023-03-21T02:51:22.436Z,46.83
2023-03-21T02:56:43.153Z,42.72
2023-03-21T02:59:11.428Z,44.33
2023-03-21T03:01:38.467Z,44.30
2023-03-21T03:04:22.132Z,43.95
2023-03-21T03:07:13.032Z,43.65
2023-03-21T03:10:11.224Z,39.38
2023-03-21T03:13:18.801Z,41.05
2023-03-21T03:15:52.586Z,45.72
2023-03-21T03:18:52.510Z,42.40
2023-03-21T03:24:03.249Z,45.75
2023-03-21T03:26:41.372Z,46.55
2023-03-21T03:29:12.823Z,49.20
2023-03-21T03:31:49.178Z,49.38
2023-03-21T03:34:21.686Z,46.65
2023-03-21T03:36:56.413Z,46.55
2023-03-21T03:39:37.862Z,39.00
2023-03-21T03:42:28.153Z,33.78
2023-03-21T03:45:06.648Z,38.80
2023-03-21T03:47:57.044Z,34.78
2023-03-21T03:50:42.304Z,33.80
2023-03-21T03:53:18.975Z,39.08
2023-03-21T03:55:50.343Z,37.38
2023-03-21T03:58:33.429Z,38.08
2023-03-21T04:01:07.625Z,33.38
2023-03-21T04:03:48.403Z,36.92
2023-03-21T04:06:18.626Z,36.83
2023-03-21T04:08:46.753Z,34.95
2023-03-21T04:11:17.932Z,36.75
2023-03-21T04:13:49.243Z,33.88
2023-03-21T04:16:23.498Z,37.75
2023-03-21T04:18:52.546Z,41.10
2023-03-21T04:21:20.118Z,31.58
2023-03-21T04:23:47.329Z,36.30
2023-03-21T04:26:14.331Z,32.45
2023-03-21T04:28:56.649Z,37.25
2023-03-21T04:31:27.313Z,33.78
2023-03-21T04:34:24.040Z,32.05
2023-03-21T04:36:54.117Z,35.10
2023-03-21T04:39:22.179Z,35.08
2023-03-21T04:41:50.282Z,35.33
2023-03-21T04:44:18.275Z,32.70
2023-03-21T04:46:46.513Z,30.73
2023-03-21T04:49:14.150Z,31.58
2023-03-21T04:51:45.221Z,29.20
2023-03-21T04:56:42.891Z,30.88
2023-03-21T04:59:12.948Z,27.17
2023-03-21T05:01:41.322Z,28.95
2023-03-21T05:04:11.731Z,31.13
2023-03-21T05:06:39.533Z,34.38
2023-03-21T05:09:07.159Z,27.25
2023-03-21T05:11:37.960Z,25.70
2023-03-21T05:14:07.594Z,27.85
2023-03-21T05:16:36.430Z,27.67
2023-03-21T05:19:03.925Z,30.17
2023-03-21T05:21:42.017Z,26.48
2023-03-21T05:24:20.023Z,29.33
2023-03-21T05:26:52.415Z,30.00
2023-03-21T05:29:23.022Z,31.58
2023-03-21T05:32:00.359Z,32.55
2023-03-21T05:34:28.023Z,30.80
2023-03-21T05:36:55.354Z,29.15
2023-03-21T05:39:24.836Z,28.77
2023-03-21T05:42:00.936Z,29.67
2023-03-21T05:44:28.698Z,25.10
2023-03-21T05:46:55.880Z,30.38
2023-03-21T05:49:29.230Z,29.30
2023-03-21T05:51:59.289Z,33.08
2023-03-21T05:54:26.602Z,30.15
2023-03-21T05:56:54.115Z,31.63
2023-03-21T05:59:32.984Z,32.60
2023-03-21T06:02:00.193Z,28.95
2023-03-21T06:04:27.889Z,39.20
2023-03-21T06:06:54.980Z,30.55
2023-03-21T06:09:24.312Z,29.67
2023-03-21T06:11:57.281Z,30.77
2023-03-21T06:14:33.727Z,30.05
2023-03-21T06:17:15.930Z,30.58
2023-03-21T06:19:56.167Z,26.08
2023-03-21T06:22:32.537Z,28.65
2023-03-21T06:25:01.626Z,25.75
2023-03-21T06:27:29.123Z,33.75
2023-03-21T06:30:05.808Z,26.33
2023-03-21T06:32:38.617Z,25.52
2023-03-21T06:35:13.204Z,26.25
2023-03-21T06:37:40.160Z,26.42
2023-03-21T06:40:09.646Z,23.58
2023-03-21T06:42:36.732Z,24.60
2023-03-21T06:45:10.579Z,26.33
2023-03-21T06:47:37.724Z,25.30
2023-03-21T06:50:10.897Z,23.33
2023-03-21T06:52:42.185Z,23.88
2023-03-21T06:55:10.429Z,22.52
2023-03-21T06:57:37.763Z,26.55
2023-03-21T07:00:06.096Z,18.77
2023-03-21T07:02:33.904Z,23.75
2023-03-21T07:05:07.410Z,21.05
2023-03-21T07:07:34.415Z,18.77
2023-03-21T07:10:01.775Z,21.55
2023-03-21T07:12:36.441Z,19.45
2023-03-21T07:15:15.275Z,19.05
2023-03-21T07:17:44.419Z,20.30
2023-03-21T07:20:12.779Z,25.10
2023-03-21T07:22:40.595Z,21.95
2023-03-21T07:25:08.549Z,20.60
2023-03-21T07:30:10.805Z,16.48
2023-03-21T07:32:38.242Z,16.60
2023-03-21T07:35:12.389Z,16.70
2023-03-21T07:37:40.815Z,16.42
2023-03-21T07:40:10.545Z,16.55
2023-03-21T07:42:40.294Z,11.13
2023-03-21T07:45:09.404Z,15.65
2023-03-21T07:47:36.722Z,12.63
2023-03-21T07:50:07.539Z,14.95
2023-03-21T07:52:34.596Z,12.55
2023-03-21T07:55:01.807Z,12.98
2023-03-21T07:57:29.091Z,12.48
2023-03-21T07:59:56.238Z,13.10
2023-03-21T08:02:23.157Z,9.88
2023-03-21T08:04:51.263Z,10.77
2023-03-21T08:07:18.268Z,12.07
2023-03-21T08:09:45.584Z,12.45
2023-03-21T08:12:12.496Z,12.30
2023-03-21T08:14:39.745Z,11.25
2023-03-21T08:17:09.467Z,11.40
2023-03-21T08:19:37.601Z,11.27
2023-03-21T08:22:06.716Z,14.35
2023-03-21T08:24:34.278Z,11.93
2023-03-21T08:27:01.996Z,10.75
2023-03-21T08:29:29.216Z,11.57
2023-03-21T08:31:56.331Z,12.27
2023-03-21T08:34:23.926Z,10.40
2023-03-21T08:36:50.914Z,10.30
2023-03-21T08:39:18.087Z,9.85
2023-03-21T08:41:45.382Z,10.68
2023-03-21T08:44:13.072Z,12.75
2023-03-21T08:46:40.167Z,11.63
2023-03-21T08:49:07.495Z,10.80
2023-03-21T08:51:34.614Z,9.35
2023-03-21T08:54:01.815Z,10.73
2023-03-21T08:56:29.119Z,8.90
2023-03-21T08:58:56.633Z,11.10
2023-03-21T09:01:23.658Z,10.98
2023-03-21T09:03:50.896Z,11.48
2023-03-21T09:06:17.792Z,10.38
2023-03-21T09:08:46.436Z,11.05
2023-03-21T09:11:13.891Z,9.50
2023-03-21T09:13:41.195Z,10.68
2023-03-21T09:16:08.997Z,11.43
2023-03-21T09:18:47.508Z,9.65
2023-03-21T09:21:16.889Z,10.68
2023-03-21T09:23:48.740Z,10.57
2023-03-21T09:26:16.237Z,10.15
2023-03-21T09:28:43.662Z,10.57
2023-03-21T09:31:16.619Z,11.10
2023-03-21T09:33:44.797Z,11.48
2023-03-21T09:36:14.171Z,10.63
2023-03-21T09:38:43.170Z,10.75
2023-03-21T09:41:27.894Z,11.30
2023-03-21T09:44:01.109Z,11.25
2023-03-21T09:46:35.204Z,15.65
2023-03-21T09:49:09.926Z,12.50
2023-03-21T09:51:43.049Z,10.57
2023-03-21T09:54:21.469Z,12.00
2023-03-21T09:56:52.902Z,11.45
2023-03-21T09:59:35.810Z,9.77
2023-03-21T10:02:04.098Z,9.50
2023-03-21T10:04:32.495Z,11.63
2023-03-21T10:07:02.650Z,12.85
2023-03-21T10:09:32.639Z,11.52
2023-03-21T10:12:09.293Z,13.02
2023-03-21T10:14:40.893Z,13.73
2023-03-21T10:17:33.826Z,15.15
2023-03-21T10:20:12.081Z,14.20
2023-03-21T10:22:39.817Z,15.27
2023-03-21T10:25:08.650Z,15.40
2023-03-21T10:27:37.070Z,17.52
2023-03-21T10:30:07.597Z,12.30
2023-03-21T10:32:35.884Z,11.45
2023-03-21T10:35:07.422Z,12.85
2023-03-21T10:37:36.377Z,15.70
2023-03-21T10:40:06.298Z,10.20
2023-03-21T10:42:36.006Z,7.70
2023-03-21T10:45:03.246Z,12.05
2023-03-21T10:47:33.597Z,11.35
2023-03-21T10:50:20.453Z,12.63
2023-03-21T10:52:53.610Z,10.80
2023-03-21T10:55:29.551Z,6.75
2023-03-21T10:58:11.011Z,5.95
2023-03-21T11:00:41.518Z,7.68
2023-03-21T11:03:21.728Z,5.07
2023-03-21T11:05:53.290Z,3.72
2023-03-21T11:08:20.789Z,1.83
2023-03-21T11:10:59.851Z,2.33
2023-03-21T11:13:48.534Z,3.25
2023-03-21T11:16:24.328Z,2.33
2023-03-21T11:18:53.103Z,4.10
2023-03-21T11:21:22.234Z,8.00
2023-03-21T11:23:52.100Z,4.20
2023-03-21T11:26:29.856Z,9.70
2023-03-21T11:28:57.605Z,13.65
2023-03-21T11:31:45.473Z,7.80
2023-03-21T11:34:26.457Z,4.90
2023-03-21T11:36:59.346Z,5.55
2023-03-21T11:39:33.921Z,5.32
2023-03-21T11:42:01.144Z,5.70
2023-03-21T11:44:31.838Z,9.38
2023-03-21T11:46:59.264Z,8.75
2023-03-21T11:49:28.010Z,6.78
2023-03-21T11:52:03.012Z,7.18
2023-03-21T11:55:04.082Z,14.10
2023-03-21T11:57:46.880Z,8.48
2023-03-21T12:01:09.266Z,7.32
2023-03-21T12:03:49.206Z,7.28
2023-03-21T12:06:37.874Z,7.57
2023-03-21T12:09:17.702Z,6.55
2023-03-21T12:12:38.323Z,6.07
2023-03-21T12:15:27.797Z,6.07
2023-03-21T12:18:39.498Z,8.50
2023-03-21T12:21:17.045Z,6.93
2023-03-21T12:24:13.884Z,7.78
2023-03-21T12:26:50.311Z,6.40
2023-03-21T12:29:36.682Z,8.65
2023-03-21T12:32:06.715Z,7.88
2023-03-21T12:34:52.608Z,7.90
2023-03-21T12:37:36.066Z,7.05
2023-03-21T12:40:20.617Z,6.18
2023-03-21T12:43:12.444Z,7.90
2023-03-21T12:45:47.256Z,19.83
2023-03-21T12:48:53.564Z,5.88
2023-03-21T12:51:26.517Z,7.18
2023-03-21T12:53:56.915Z,8.93
2023-03-21T12:56:47.868Z,6.45
2023-03-21T12:59:29.925Z,6.53
2023-03-21T13:02:01.955Z,6.03
2023-03-21T13:04:44.296Z,86.78
2023-03-21T13:07:17.599Z,7.15
2023-03-21T13:09:45.017Z,29.40
2023-03-21T13:12:30.621Z,6.43
2023-03-21T13:15:00.796Z,18.83
2023-03-21T13:17:37.268Z,26.30
2023-03-21T13:20:26.949Z,14.85
2023-03-21T13:22:53.873Z,6.47
2023-03-21T13:25:33.329Z,6.72
2023-03-21T13:28:04.239Z,9.25
2023-03-21T13:30:32.531Z,8.10
2023-03-21T13:33:08.451Z,20.70
2023-03-21T13:35:43.090Z,6.95
2023-03-21T13:38:18.639Z,7.63
2023-03-21T13:40:48.685Z,6.03
2023-03-21T13:43:39.077Z,5.85
2023-03-21T13:46:11.303Z,5.40
2023-03-21T13:48:59.167Z,7.53
2023-03-21T13:52:12.263Z,7.10
2023-03-21T13:54:39.272Z,4.78
2023-03-21T13:57:07.478Z,6.35
2023-03-21T13:59:43.657Z,6.00
2023-03-21T14:02:28.058Z,6.50
2023-03-21T14:05:08.178Z,6.18
2023-03-21T14:07:44.583Z,4.97
2023-03-21T14:10:28.872Z,11.20
2023-03-21T14:12:57.172Z,5.47
2023-03-21T14:15:27.742Z,6.45
2023-03-21T14:17:57.665Z,5.88
2023-03-21T14:20:40.154Z,7.90
2023-03-21T14:23:13.630Z,10.40
2023-03-21T14:25:47.572Z,7.65
2023-03-21T14:28:28.579Z,8.18
2023-03-21T14:31:00.338Z,7.90
2023-03-21T14:33:51.869Z,11.25
2023-03-21T14:36:23.815Z,11.57
2023-03-21T14:39:07.675Z,9.38
2023-03-21T14:41:45.279Z,8.60
2023-03-21T14:44:17.480Z,12.20
2023-03-21T14:46:45.142Z,19.83
2023-03-21T14:49:27.440Z,11.00
2023-03-21T14:51:57.043Z,9.65
2023-03-21T14:54:27.362Z,8.57
2023-03-21T14:57:03.789Z,6.50
2023-03-21T14:59:39.230Z,5.72
2023-03-21T15:02:20.130Z,6.68
2023-03-21T15:04:51.562Z,8.07
2023-03-21T15:07:31.125Z,7.78
2023-03-21T15:10:04.729Z,5.60
2023-03-21T15:12:32.837Z,8.80
2023-03-21T15:15:01.513Z,5.25
2023-03-21T15:17:28.960Z,6.80
2023-03-21T15:19:56.233Z,8.40
2023-03-21T15:22:49.117Z,8.07
2023-03-21T15:25:22.301Z,6.70
2023-03-21T15:27:50.905Z,8.38
2023-03-21T15:30:30.407Z,7.10
2023-03-21T15:32:58.869Z,6.15
2023-03-21T15:35:31.987Z,5.70
2023-03-21T15:37:59.876Z,7.07
2023-03-21T15:40:30.289Z,5.00
2023-03-21T15:43:13.469Z,10.13
2023-03-21T15:45:55.978Z,6.57
2023-03-21T15:48:28.428Z,5.30
2023-03-21T15:50:55.617Z,9.80
2023-03-21T15:53:24.073Z,6.65
2023-03-21T15:55:57.039Z,7.00
2023-03-21T15:58:27.383Z,9.38
2023-03-21T16:00:57.547Z,6.50
2023-03-21T16:03:28.365Z,10.00
2023-03-21T16:06:10.613Z,6.28
2023-03-21T16:08:44.740Z,10.50
2023-03-21T16:11:40.420Z,7.35
2023-03-21T16:14:08.271Z,9.13
2023-03-21T16:16:36.388Z,6.45
2023-03-21T16:19:04.264Z,6.72
2023-03-21T16:21:31.838Z,6.70
2023-03-21T16:23:58.882Z,8.20
2023-03-21T16:26:32.375Z,6.95
2023-03-21T16:28:59.850Z,9.93
2023-03-21T16:31:30.191Z,7.97
2023-03-21T16:33:57.548Z,10.18
2023-03-21T16:36:28.701Z,11.98
2023-03-21T16:38:56.289Z,7.97
2023-03-21T16:41:25.580Z,8.35
2023-03-21T16:43:53.630Z,7.40
2023-03-21T16:46:23.706Z,10.75
2023-03-21T16:48:53.056Z,11.55
2023-03-21T16:51:29.374Z,9.60
2023-03-21T16:53:57.946Z,7.80
2023-03-21T16:56:46.847Z,6.68
2023-03-21T16:59:14.320Z,8.50
2023-03-21T17:01:46.310Z,9.82
2023-03-21T17:04:15.024Z,10.60
2023-03-21T17:06:51.730Z,8.93
2023-03-21T17:09:21.842Z,13.30
2023-03-21T17:11:49.736Z,9.05
2023-03-21T17:14:21.245Z,10.40
2023-03-21T17:16:49.295Z,8.95
2023-03-21T17:19:19.283Z,8.70
2023-03-21T17:21:46.658Z,8.60
2023-03-21T17:24:13.617Z,10.40
2023-03-21T17:26:41.099Z,9.52
2023-03-21T17:29:10.865Z,9.45
2023-03-21T17:31:38.225Z,10.73
2023-03-21T17:34:05.647Z,12.15
2023-03-21T17:36:36.283Z,11.70
2023-03-21T17:39:06.550Z,11.73
2023-03-21T17:41:33.764Z,13.95
2023-03-21T17:44:01.211Z,10.15
2023-03-21T17:46:32.131Z,9.30
2023-03-21T17:48:59.082Z,10.37
2023-03-21T17:51:30.213Z,7.72
2023-03-21T17:53:57.488Z,12.07
2023-03-21T17:56:32.091Z,11.63
2023-03-21T17:59:04.168Z,12.25
2023-03-21T18:01:32.090Z,13.82
2023-03-21T18:04:02.713Z,10.98
2023-03-21T18:06:30.148Z,12.38
2023-03-21T18:08:57.574Z,11.75
2023-03-21T18:11:26.848Z,10.70
2023-03-21T18:14:06.571Z,10.85
2023-03-21T18:16:41.564Z,14.55
2023-03-21T18:19:10.669Z,14.30
2023-03-21T18:21:40.741Z,12.32
2023-03-21T18:24:07.855Z,18.38
2023-03-21T18:26:35.374Z,10.25
2023-03-21T18:32:04.744Z,11.50
2023-03-21T18:34:32.796Z,10.13
2023-03-21T18:37:03.717Z,14.20
2023-03-21T18:39:33.116Z,12.35
2023-03-21T18:42:02.462Z,12.60
2023-03-21T18:44:31.157Z,16.58
2023-03-21T18:46:58.936Z,14.43
2023-03-21T18:52:13.403Z,16.63
2023-03-21T18:54:40.619Z,14.10
2023-03-21T18:59:56.814Z,13.00
2023-03-21T19:02:24.328Z,14.90
2023-03-21T19:04:51.785Z,15.45
2023-03-21T19:07:19.148Z,16.17
2023-03-21T19:10:10.721Z,15.98
2023-03-21T19:12:34.175Z,13.23
2023-03-21T19:15:01.407Z,16.73
2023-03-21T19:20:16.729Z,15.98
2023-03-21T19:22:44.795Z,17.38
2023-03-21T19:25:13.419Z,19.75
2023-03-21T19:27:41.512Z,16.10
2023-03-21T19:30:15.298Z,18.58
2023-03-21T19:32:44.189Z,16.42
2023-03-21T19:35:11.814Z,19.25
2023-03-21T19:37:39.040Z,14.50
2023-03-21T19:40:07.202Z,15.82
2023-03-21T19:42:36.313Z,13.55
2023-03-21T19:45:05.447Z,16.25
2023-03-21T19:47:32.866Z,20.23
2023-03-21T19:50:42.730Z,16.95
2023-03-21T19:52:47.231Z,19.13
2023-03-21T19:55:14.981Z,20.95
2023-03-21T19:57:42.209Z,17.45
2023-03-21T20:00:11.468Z,22.20
2023-03-21T20:02:39.619Z,18.95
2023-03-21T20:05:07.832Z,37.22
2023-03-21T20:07:35.531Z,21.35
2023-03-21T20:10:02.649Z,22.10
2023-03-21T20:12:30.682Z,24.17
2023-03-21T20:15:10.334Z,24.98
2023-03-21T20:17:43.223Z,26.88
2023-03-21T20:20:14.028Z,42.83
2023-03-21T20:23:05.623Z,43.35
2023-03-21T20:25:30.147Z,42.60
2023-03-21T20:28:14.573Z,40.38
2023-03-21T20:30:57.285Z,41.85
2023-03-21T20:33:25.269Z,45.20
2023-03-21T20:38:51.500Z,48.17
2023-03-21T20:41:18.613Z,40.53
2023-03-21T20:46:37.044Z,39.92
2023-03-21T20:49:08.704Z,45.42
2023-03-21T20:54:23.618Z,43.40
2023-03-21T20:56:50.911Z,40.17
2023-03-21T20:59:26.455Z,41.17
2023-03-21T21:01:57.266Z,42.28
2023-03-21T21:04:44.195Z,40.42
2023-03-21T21:07:17.282Z,40.08
2023-03-21T21:09:45.465Z,40.72
2023-03-21T21:12:14.490Z,38.47
2023-03-21T21:14:42.628Z,42.55
2023-03-21T21:19:56.944Z,40.00
2023-03-21T21:22:23.811Z,45.22
2023-03-21T21:24:52.083Z,42.10
2023-03-21T21:27:19.959Z,38.03
2023-03-21T21:29:50.008Z,39.72
2023-03-21T21:32:18.806Z,39.35
2023-03-21T21:34:46.383Z,39.05
2023-03-21T21:37:13.284Z,44.35
2023-03-21T21:39:42.067Z,37.33
2023-03-21T21:42:09.048Z,39.92
2023-03-21T21:44:37.347Z,40.08
2023-03-21T21:47:08.595Z,41.45
2023-03-21T21:52:04.078Z,42.00
2023-03-21T21:54:34.340Z,40.58
2023-03-21T21:57:01.303Z,41.50
2023-03-21T21:59:29.339Z,44.05
2023-03-21T22:01:58.590Z,38.58
2023-03-21T22:04:27.631Z,42.78
2023-03-21T22:06:55.499Z,44.75
2023-03-21T22:09:23.152Z,40.53
2023-03-21T22:11:50.589Z,46.22
2023-03-21T22:14:18.216Z,40.28
2023-03-21T22:16:46.874Z,40.72
2023-03-21T22:19:14.363Z,40.78
2023-03-21T22:21:41.612Z,46.38
2023-03-21T22:24:08.853Z,48.00
2023-03-21T22:26:36.311Z,48.67
2023-03-21T22:29:03.805Z,43.28
2023-03-21T22:31:30.867Z,47.92
2023-03-21T22:33:58.383Z,44.00
2023-03-21T22:36:25.499Z,46.70
2023-03-21T22:38:52.651Z,49.03
2023-03-21T22:41:19.554Z,51.30
2023-03-21T22:43:46.839Z,47.35
2023-03-21T22:46:13.923Z,45.35
2023-03-21T22:48:41.591Z,51.15
2023-03-21T22:51:09.143Z,51.70
2023-03-21T22:53:36.726Z,51.83
2023-03-21T22:56:03.656Z,51.00
2023-03-21T22:58:31.076Z,50.95
2023-03-21T23:01:02.438Z,55.28
2023-03-21T23:06:01.522Z,53.83
2023-03-21T23:08:29.842Z,56.28
2023-03-21T23:10:56.713Z,57.22
2023-03-21T23:13:26.442Z,55.95
2023-03-21T23:15:53.677Z,58.72
2023-03-21T23:18:21.369Z,62.40
2023-03-21T23:20:53.628Z,60.08
2023-03-21T23:23:21.473Z,57.47
2023-03-21T23:25:48.590Z,58.80
2023-03-21T23:28:15.791Z,63.10
2023-03-21T23:30:43.067Z,57.10
2023-03-21T23:33:10.616Z,65.13
2023-03-21T23:35:38.501Z,61.85
2023-03-21T23:38:06.338Z,69.10
2023-03-21T23:40:33.493Z,66.15
2023-03-21T23:43:00.755Z,65.20
2023-03-21T23:45:28.193Z,69.30
2023-03-21T23:47:55.690Z,68.60
2023-03-21T23:50:23.198Z,62.13
2023-03-21T23:52:50.966Z,68.70
2023-03-21T23:55:17.946Z,62.28
2023-03-21T23:57:45.172Z,67.90
